Time;durP1;ratioP1;P1;durP2;ratioP2;P2;SDS_P1;SDS_P2;PMS_P1;PMS_P2;Temp;Humidity;BMP_temperature;BMP_pressure;BME280_temperature;BME280_humidity;BME280_pressure;Samples;Min_cycle;Max_cycle;Signal;HPM_P1;HPM_P2
2022/11/13 00:01:40;;;;;;;;;92.00;75.00;;;;;5.61;100.00;101279.59;6278325;20;3665970;-56
2022/11/13 00:04:09;;;;;;;;;99.33;78.67;;;;;5.67;100.00;101273.28;6279150;20;3692351;-57
2022/11/13 00:06:39;;;;;;;;;90.25;76.75;;;;;5.80;100.00;101273.97;6277526;20;4425284;-57
2022/11/13 00:09:11;;;;;;;;;88.50;70.00;;;;;5.90;100.00;101270.25;6314706;20;4411871;-56
2022/11/13 00:11:41;;;;;;;;;90.00;68.33;;;;;5.71;100.00;101270.56;6311425;20;3683573;-55
2022/11/13 00:14:11;;;;;;;;;86.33;72.00;;;;;5.72;100.00;101274.09;6278457;20;3666975;-54
2022/11/13 00:16:38;;;;;;;;;57.00;38.50;;;;;5.78;100.00;101268.66;6279352;20;2848282;-57
2022/11/13 00:19:08;;;;;;;;;89.67;71.00;;;;;5.83;100.00;101264.13;6280646;20;3674333;-52
2022/11/13 00:21:38;;;;;;;;;85.00;70.33;;;;;5.76;100.00;101251.81;6279425;20;3651425;-54
2022/11/13 00:24:07;;;;;;;;;80.00;61.00;;;;;5.85;100.00;101262.34;6275808;20;3650343;-54
2022/11/13 00:26:38;;;;;;;;;90.33;74.00;;;;;5.83;100.00;101277.47;6305179;20;3668040;-55
2022/11/13 00:29:08;;;;;;;;;88.25;71.25;;;;;5.80;100.00;101264.19;6279965;20;4433009;-54
2022/11/13 00:31:38;;;;;;;;;91.67;74.33;;;;;5.90;100.00;101264.94;6311223;20;3668780;-56
2022/11/13 00:34:09;;;;;;;;;93.75;73.75;;;;;5.93;100.00;101271.09;6282870;20;4433650;-53
2022/11/13 00:36:59;;;;;;;;;90.33;73.33;;;;;5.80;100.00;101266.84;6307982;20;3671216;-54
2022/11/13 00:39:29;;;;;;;;;90.33;72.67;;;;;5.90;100.00;101268.47;6274190;20;3677395;-54
2022/11/13 00:41:58;;;;;;;;;95.67;77.00;;;;;5.90;100.00;101275.59;6275011;20;3689865;-54
2022/11/13 00:44:28;;;;;;;;;95.50;82.00;;;;;5.84;100.00;101273.88;6280174;20;3652421;-57
2022/11/13 00:46:57;;;;;;;;;91.00;72.00;;;;;5.81;100.00;101281.94;6308146;20;3666963;-55
2022/11/13 00:49:27;;;;;;;;;95.00;79.33;;;;;5.78;100.00;101268.66;6278660;20;3658584;-55
2022/11/13 00:51:59;;;;;;;;;90.67;75.67;;;;;5.86;100.00;101273.88;6276691;20;3686668;-55
2022/11/13 00:54:28;;;;;;;;;97.67;79.00;;;;;5.83;100.00;101264.13;6275628;20;3672168;-57
2022/11/13 00:56:58;;;;;;;;;97.67;83.67;;;;;5.82;100.00;101267.72;6273764;20;3662797;-56
2022/11/13 00:59:27;;;;;;;;;94.33;74.67;;;;;5.77;100.00;101266.03;6273831;20;3679450;-56
2022/11/13 01:01:57;;;;;;;;;94.00;76.67;;;;;5.99;100.00;101270.13;6274470;20;3674708;-57
2022/11/13 01:04:28;;;;;;;;;101.00;83.00;;;;;5.94;100.00;101267.53;6280682;20;4451238;-57
2022/11/13 01:06:58;;;;;;;;;115.50;91.50;;;;;6.01;100.00;101262.09;6308478;20;4469147;-54
2022/11/13 01:09:27;;;;;;;;;97.00;83.67;;;;;6.01;100.00;101256.78;6274849;20;3660711;-57
2022/11/13 01:11:57;;;;;;;;;93.00;78.00;;;;;5.97;100.00;101244.41;6277015;20;3670224;-57
2022/11/13 01:14:26;;;;;;;;;92.00;81.00;;;;;6.03;100.00;101236.28;6281965;20;3651289;-57
2022/11/13 01:16:56;;;;;;;;;96.33;81.33;;;;;6.02;100.00;101242.53;6281533;20;3664939;-56
2022/11/13 01:19:26;;;;;;;;;91.00;73.33;;;;;6.03;100.00;101249.59;6282952;20;3676303;-58
2022/11/13 01:21:55;;;;;;;;;96.67;79.00;;;;;5.87;100.00;101244.53;6281982;20;3689928;-56
2022/11/13 01:24:25;;;;;;;;;94.33;81.00;;;;;5.91;100.00;101242.69;6282596;20;3652423;-55
2022/11/13 01:26:55;;;;;;;;;93.00;79.67;;;;;5.92;100.00;101242.66;6278326;20;3675777;-57
2022/11/13 01:29:24;;;;;;;;;99.00;80.67;;;;;5.57;100.00;101239.69;6281816;20;3687733;-57
2022/11/13 01:31:54;;;;;;;;;94.33;83.67;;;;;5.75;100.00;101238.53;6282565;20;3664939;-54
2022/11/13 01:34:23;;;;;;;;;90.67;71.67;;;;;5.69;100.00;101234.19;6284471;20;3690905;-57
2022/11/13 01:36:53;;;;;;;;;98.00;81.50;;;;;5.44;100.00;101229.22;6285017;20;4442070;-52
2022/11/13 01:39:22;;;;;;;;;90.00;73.00;;;;;5.63;100.00;101234.25;6314529;20;3677358;-57
2022/11/13 01:41:52;;;;;;;;;93.00;74.33;;;;;5.64;100.00;101228.06;6277504;20;3678397;-58
2022/11/13 01:44:22;;;;;;;;;89.67;75.67;;;;;5.62;100.00;101229.84;6282139;20;3667942;-58
2022/11/13 01:46:54;;;;;;;;;87.33;67.00;;;;;5.68;100.00;101225.28;6279883;20;3659600;-57
2022/11/13 01:49:37;;;;;;;;;87.67;73.33;;;;;5.59;100.00;101221.91;6278904;20;3666917;-58
2022/11/13 01:52:15;;;;;;;;;90.67;66.67;;;;;5.62;100.00;101211.19;6275909;20;3664789;-56
2022/11/13 01:54:54;;;;;;;;;88.00;77.33;;;;;5.82;100.00;101219.75;6280346;20;3657627;-56
2022/11/13 01:57:24;;;;;;;;;90.33;68.67;;;;;5.61;100.00;101213.00;6274493;20;3674337;-58
2022/11/13 02:00:06;;;;;;;;;89.67;70.00;;;;;5.67;100.00;101196.03;6281658;20;3665958;-56
2022/11/13 02:02:36;;;;;;;;;89.25;73.00;;;;;5.56;100.00;101205.97;6284946;20;4438787;-54
2022/11/13 02:05:07;;;;;;;;;90.00;76.00;;;;;5.58;100.00;101204.16;6312867;20;2794032;-57
2022/11/13 02:07:37;;;;;;;;;92.00;74.33;;;;;5.67;100.00;101198.69;6279689;20;3687777;-58
2022/11/13 02:10:07;;;;;;;;;88.00;70.67;;;;;5.63;100.00;101208.50;6281037;20;3673177;-56
2022/11/13 02:12:42;;;;;;;;;90.33;69.33;;;;;5.65;100.00;101211.16;6282741;20;3683799;-58
2022/11/13 02:15:13;;;;;;;;;83.00;63.00;;;;;5.76;100.00;101214.50;6279304;20;3638001;-55
2022/11/13 02:17:55;;;;;;;;;87.50;68.00;;;;;5.59;100.00;101211.25;6311658;20;4431505;-57
2022/11/13 02:21:23;;;;;;;;;92.00;71.33;;;;;5.45;100.00;101209.69;6309853;20;3673199;-56
2022/11/13 02:24:30;;;;;;;;;89.00;74.33;;;;;5.73;100.00;101215.44;6281739;20;3672125;-56
2022/11/13 02:27:10;;;;;;;;;87.33;67.33;;;;;5.65;100.00;101217.34;6275648;20;3656666;-57
2022/11/13 02:29:40;;;;;;;;;86.33;69.67;;;;;5.70;100.00;101218.16;6312040;20;3652380;-57
2022/11/13 02:32:09;;;;;;;;;84.00;64.33;;;;;5.76;100.00;101211.84;6279551;20;3650286;-56
2022/11/13 02:34:39;;;;;;;;;91.67;74.33;;;;;5.58;100.00;101212.13;6278045;20;3680495;-56
2022/11/13 02:37:08;;;;;;;;;88.67;69.00;;;;;5.52;100.00;101214.91;6277923;20;3670105;-55
2022/11/13 02:39:38;;;;;;;;;86.67;72.00;;;;;5.55;100.00;101214.88;6282125;20;3654549;-56
2022/11/13 02:42:08;;;;;;;;;89.00;68.33;;;;;5.58;100.00;101214.81;6280727;20;3678373;-58
2022/11/13 02:44:37;;;;;;;;;88.33;73.00;;;;;5.59;100.00;101217.47;6277295;20;3659618;-57
2022/11/13 02:47:07;;;;;;;;;89.33;68.00;;;;;5.69;100.00;101220.84;6279403;20;3678363;-57
2022/11/13 02:49:36;;;;;;;;;89.00;70.33;;;;;5.58;100.00;101210.38;6281483;20;3666890;-57
2022/11/13 02:52:06;;;;;;;;;90.00;71.00;;;;;5.47;100.00;101213.19;6278880;20;3672216;-56
2022/11/13 02:54:36;;;;;;;;;88.00;72.33;;;;;5.48;100.00;101214.09;6280030;20;3670040;-57
2022/11/13 02:57:05;;;;;;;;;84.00;61.00;;;;;5.46;100.00;101205.25;6276375;20;3659631;-56
2022/11/13 02:59:35;;;;;;;;;92.67;70.67;;;;;5.67;100.00;101204.88;6307918;20;3679401;-57
2022/11/13 03:02:04;;;;;;;;;82.67;64.00;;;;;5.66;100.00;101192.47;6278739;20;3626312;-56
2022/11/13 03:04:34;;;;;;;;;92.00;69.67;;;;;5.72;100.00;101196.81;6313369;20;3672181;-57
2022/11/13 03:07:23;;;;;;;;;90.00;72.00;;;;;5.78;100.00;101195.81;6278524;20;3675229;-55
2022/11/13 03:09:53;;;;;;;;;85.67;66.00;;;;;5.68;100.00;101195.97;6282459;20;3660744;-57
2022/11/13 03:12:23;;;;;;;;;85.67;69.00;;;;;5.78;100.00;101196.69;6280664;20;3658599;-55
2022/11/13 03:14:52;;;;;;;;;93.33;77.67;;;;;5.71;100.00;101184.38;6281336;20;3682570;-58
2022/11/13 03:17:22;;;;;;;;;92.00;77.75;;;;;5.72;100.00;101199.47;6278526;20;4428471;-57
2022/11/13 03:19:51;;;;;;;;;93.00;76.00;;;;;5.89;100.00;101200.03;6309600;20;3677412;-54
2022/11/13 03:22:21;;;;;;;;;88.00;70.67;;;;;5.79;100.00;101203.78;6276613;20;3688238;-55
2022/11/13 03:24:50;;;;;;;;;89.67;70.33;;;;;5.70;100.00;101209.28;6281266;20;3672160;-55
2022/11/13 03:27:20;;;;;;;;;88.33;69.00;;;;;5.69;100.00;101197.75;6277809;20;3676340;-55
2022/11/13 03:29:50;;;;;;;;;90.33;71.33;;;;;5.86;100.00;101196.56;6277432;20;3671112;-55
2022/11/13 03:32:20;;;;;;;;;90.25;72.50;;;;;5.85;100.00;101202.81;6281967;20;4434645;-56
2022/11/13 03:34:49;;;;;;;;;93.33;76.33;;;;;5.70;100.00;101203.94;6310710;20;3680511;-57
2022/11/13 03:37:19;;;;;;;;;94.33;70.67;;;;;5.90;100.00;101212.50;6278316;20;3683579;-56
2022/11/13 03:39:48;;;;;;;;;86.33;70.67;;;;;5.84;100.00;101201.91;6279539;20;3660721;-55
2022/11/13 03:42:18;;;;;;;;;87.33;65.00;;;;;5.93;100.00;101211.56;6279404;20;3651515;-56
2022/11/13 03:44:48;;;;;;;;;83.00;68.00;;;;;5.71;100.00;101201.28;6278638;20;3638801;-57
2022/11/13 03:47:17;;;;;;;;;91.33;72.00;;;;;5.56;100.00;101200.66;6309836;20;3664813;-57
2022/11/13 03:49:47;;;;;;;;;89.67;68.00;;;;;5.86;100.00;101199.22;6279483;20;3671143;-57
2022/11/13 03:52:17;;;;;;;;;88.33;69.33;;;;;5.67;100.00;101196.03;6272085;20;3660836;-56
2022/11/13 03:54:47;;;;;;;;;84.00;66.00;;;;;5.69;100.00;101194.22;6277029;20;3640906;-54
2022/11/13 03:57:16;;;;;;;;;87.67;64.00;;;;;5.78;100.00;101199.38;6309380;20;3655432;-56
2022/11/13 03:59:46;;;;;;;;;81.67;68.00;;;;;5.68;100.00;101205.75;6278305;20;3644003;-56
2022/11/13 04:02:15;;;;;;;;;89.67;67.00;;;;;5.81;100.00;101201.09;6310055;20;3676315;-57
2022/11/13 04:04:45;;;;;;;;;87.67;66.33;;;;;5.72;100.00;101186.16;6277586;20;3660687;-57
2022/11/13 04:07:14;;;;;;;;;80.00;61.33;;;;;5.70;100.00;101190.63;6275218;20;3637878;-56
2022/11/13 04:09:44;;;;;;;;;84.00;64.33;;;;;5.74;100.00;101189.69;6313427;20;3630546;-57
2022/11/13 04:12:13;;;;;;;;;84.00;65.67;;;;;5.90;100.00;101195.63;6310236;20;3640867;-56
2022/11/13 04:14:43;;;;;;;;;86.33;63.67;;;;;5.70;100.00;101198.63;6312487;20;3652445;-57
2022/11/13 04:17:13;;;;;;;;;90.00;65.33;;;;;5.65;100.00;101185.38;6276853;20;3652384;-57
2022/11/13 04:19:42;;;;;;;;;88.67;66.00;;;;;5.64;100.00;101182.75;6277133;20;3661742;-58
2022/11/13 04:22:12;;;;;;;;;90.67;70.33;;;;;5.79;100.00;101193.13;6307272;20;3674315;-56
2022/11/13 04:24:42;;;;;;;;;86.25;65.75;;;;;5.65;100.00;101195.16;6278485;20;3650319;-53
2022/11/13 04:27:11;;;;;;;;;88.00;66.00;;;;;5.58;100.00;101204.16;6308533;20;3659663;-57
2022/11/13 04:29:41;;;;;;;;;84.00;63.67;;;;;5.50;100.00;101188.28;6277868;20;3646137;-57
2022/11/13 04:32:10;;;;;;;;;92.67;77.67;;;;;5.73;100.00;101187.91;6309365;20;3673235;-57
2022/11/13 04:34:40;;;;;;;;;94.33;72.00;;;;;5.44;100.00;101175.09;6277453;20;3679498;-56
2022/11/13 04:37:10;;;;;;;;;95.00;80.00;;;;;5.63;100.00;101197.84;6271306;20;3681512;-56
2022/11/13 04:39:39;;;;;;;;;108.25;87.00;;;;;5.58;100.00;101193.50;6279433;20;4462708;-57
2022/11/13 04:44:59;;;;;;;;;90.00;68.33;;;;;5.36;100.00;101183.19;6280186;20;3684847;-55
2022/11/13 04:47:29;;;;;;;;;87.00;68.00;;;;;5.27;100.00;101188.69;6281811;20;3666937;-54
2022/11/13 04:49:58;;;;;;;;;95.33;85.00;;;;;5.29;100.00;101181.53;6283719;20;3663905;-57
2022/11/13 04:52:28;;;;;;;;;96.00;81.00;;;;;5.39;100.00;101180.47;6280955;20;3654408;-55
2022/11/13 04:54:58;;;;;;;;;121.25;96.75;;;;;5.47;100.00;101181.22;6279534;20;4477299;-56
2022/11/13 04:57:28;;;;;;;;;89.00;72.33;;;;;5.37;100.00;101186.72;6277698;20;3662898;-56
2022/11/13 04:59:58;;;;;;;;;94.33;78.67;;;;;5.53;100.00;101190.03;6282008;20;3664875;-53
2022/11/13 05:02:27;;;;;;;;;87.00;71.00;;;;;5.59;100.00;101179.28;6281373;20;3664866;-57
2022/11/13 05:04:57;;;;;;;;;90.00;71.00;;;;;5.03;100.00;101184.63;6285032;20;3668042;-57
2022/11/13 05:07:34;;;;;;;;;123.50;101.75;;;;;5.33;100.00;101185.03;6281788;20;4480594;-57
2022/11/13 05:10:04;;;;;;;;;99.00;76.67;;;;;5.44;100.00;101191.94;6285310;20;3680492;-55
2022/11/13 05:12:34;;;;;;;;;89.75;73.00;;;;;5.33;100.00;101185.91;6284047;20;4444014;-54
2022/11/13 05:15:05;;;;;;;;;91.67;77.00;;;;;5.41;100.00;101185.78;6316555;20;3658635;-58
2022/11/13 05:17:34;;;;;;;;;86.33;65.33;;;;;5.47;100.00;101199.88;6278666;20;3664663;-55
2022/11/13 05:20:05;;;;;;;;;83.33;63.33;;;;;5.24;100.00;101194.06;6281354;20;3639870;-56
2022/11/13 05:22:33;;;;;;;;;62.50;44.50;;;;;5.51;100.00;101192.72;6312784;20;2852534;-56
2022/11/13 05:25:03;;;;;;;;;85.33;63.67;;;;;5.42;100.00;101203.53;6282765;20;3640899;-53
2022/11/13 05:27:32;;;;;;;;;82.67;60.33;;;;;5.21;100.00;101188.75;6313252;20;3669034;-55
2022/11/13 05:30:03;;;;;;;;;79.00;61.33;;;;;5.36;100.00;101191.19;6280821;20;2883896;-56
2022/11/13 05:32:32;;;;;;;;;80.33;65.67;;;;;5.38;100.00;101185.84;6313166;20;2869480;-56
2022/11/13 05:35:02;;;;;;;;;86.00;66.67;;;;;5.31;100.00;101185.03;6314895;20;3638805;-54
2022/11/13 05:37:31;;;;;;;;;86.00;64.67;;;;;5.26;100.00;101189.56;6280639;20;3657555;-54
2022/11/13 05:40:02;;;;;;;;;117.00;102.75;;;;;5.39;100.00;101179.59;6310133;20;4467925;-55
2022/11/13 05:42:32;;;;;;;;;102.00;87.00;;;;;5.44;100.00;101181.28;6281045;20;3680680;-55
2022/11/13 05:45:01;;;;;;;;;89.33;73.33;;;;;5.41;100.00;101191.13;6281548;20;3673210;-57
2022/11/13 05:47:32;;;;;;;;;91.00;74.33;;;;;5.36;100.00;101180.53;6281550;20;3691041;-56
2022/11/13 05:50:02;;;;;;;;;93.00;70.67;;;;;5.51;100.00;101182.06;6280744;20;3671118;-56
2022/11/13 05:52:32;;;;;;;;;88.33;71.33;;;;;5.41;100.00;101176.00;6280523;20;3662780;-55
2022/11/13 05:55:02;;;;;;;;;102.00;87.33;;;;;5.41;100.00;101176.00;6281927;20;3686711;-56
2022/11/13 05:57:30;;;;;;;;;83.00;61.33;;;;;5.44;100.00;101175.97;6282863;20;3643001;-55
2022/11/13 05:59:59;;;;;;;;;83.67;61.67;;;;;5.48;100.00;101175.00;6284248;20;3637888;-55
2022/11/13 06:02:29;;;;;;;;;74.25;56.75;;;;;5.21;100.00;101172.78;6281364;20;3647190;-56
2022/11/13 06:04:58;;;;;;;;;86.33;73.00;;;;;5.40;100.00;101168.94;6315210;20;3651339;-55
2022/11/13 06:07:28;;;;;;;;;102.00;84.75;;;;;5.43;100.00;101174.22;6278708;20;3694074;-55
2022/11/13 06:09:56;;;;;;;;;120.00;105.50;;;;;5.34;100.00;101168.16;6310456;20;1943097;-55
2022/11/13 06:12:29;;;;;;;;;145.75;115.25;;;;;5.29;100.00;101173.53;6281559;20;4486759;-55
2022/11/13 06:14:57;;;;;;;;;133.00;113.50;;;;;5.35;100.00;101175.25;6273012;20;1950391;-57
2022/11/13 06:17:26;;;;;;;;;98.67;84.33;;;;;5.34;100.00;101181.47;6281664;20;3678409;-57
2022/11/13 06:19:54;;;;;;;;;138.00;116.50;;;;;5.51;100.00;101182.06;6277650;20;1945112;-53
2022/11/13 06:22:24;;;;;;;;;88.67;68.67;;;;;5.58;100.00;101182.84;6279975;20;3667986;-54
2022/11/13 06:24:53;;;;;;;;;88.00;68.67;;;;;5.43;100.00;101168.88;6282759;20;3666976;-57
2022/11/13 06:27:23;;;;;;;;;87.67;68.33;;;;;5.52;100.00;101175.84;6278733;20;3677446;-55
2022/11/13 06:29:53;;;;;;;;;98.75;91.00;;;;;5.64;100.00;101180.09;6281425;20;3680411;-54
2022/11/13 06:32:23;;;;;;;;;80.67;61.00;;;;;5.74;100.00;101184.34;6312887;20;3651327;-56
2022/11/13 06:34:52;;;;;;;;;82.00;63.00;;;;;5.79;100.00;101181.59;6313740;20;3644036;-54
2022/11/13 06:37:22;;;;;;;;;86.67;70.00;;;;;5.79;100.00;101182.47;6312123;20;3655598;-56
2022/11/13 06:39:51;;;;;;;;;87.67;63.00;;;;;5.82;100.00;101185.09;6279306;20;3654443;-56
2022/11/13 06:42:21;;;;;;;;;87.00;63.00;;;;;5.90;100.00;101191.16;6281015;20;3665999;-56
2022/11/13 06:44:51;;;;;;;;;92.00;78.00;;;;;5.93;100.00;101191.13;6277463;20;3666970;-56
2022/11/13 06:47:20;;;;;;;;;85.33;60.67;;;;;5.89;100.00;101197.38;6278912;20;3647205;-56
2022/11/13 06:49:50;;;;;;;;;87.00;64.67;;;;;5.90;100.00;101201.81;6280849;20;3665886;-56
2022/11/13 06:52:19;;;;;;;;;83.00;60.67;;;;;6.11;100.00;101205.06;6278829;20;3655484;-56
2022/11/13 06:54:49;;;;;;;;;84.67;60.33;;;;;6.17;100.00;101206.72;6276886;20;3634621;-56
2022/11/13 06:57:18;;;;;;;;;79.67;58.33;;;;;6.27;100.00;101201.16;6311421;20;3638806;-58
2022/11/13 06:59:48;;;;;;;;;80.00;58.00;;;;;6.22;100.00;101200.38;6276547;20;3651440;-57
2022/11/13 07:02:17;;;;;;;;;78.33;60.67;;;;;6.38;100.00;101209.84;6314575;20;3628385;-57
2022/11/13 07:04:47;;;;;;;;;71.00;53.33;;;;;6.40;100.00;101212.47;6310815;20;3642945;-58
2022/11/13 07:07:16;;;;;;;;;78.67;52.00;;;;;6.24;100.00;101203.00;6309765;20;3645048;-55
2022/11/13 07:09:46;;;;;;;;;73.33;55.00;;;;;6.32;100.00;101204.63;6312539;20;3636714;-55
2022/11/13 07:12:15;;;;;;;;;69.67;57.00;;;;;6.52;100.00;101209.53;6314196;20;3612233;-57
2022/11/13 07:14:45;;;;;;;;;82.00;61.00;;;;;6.50;100.00;101205.16;6313078;20;3631550;-57
2022/11/13 07:17:14;;;;;;;;;74.67;56.67;;;;;6.46;100.00;101206.13;6277471;20;3640922;-57
2022/11/13 07:19:44;;;;;;;;;75.67;55.67;;;;;6.40;100.00;101206.25;6310262;20;3632676;-56
2022/11/13 07:22:13;;;;;;;;;81.33;59.67;;;;;6.18;100.00;101208.47;6312212;20;3645079;-54
2022/11/13 07:24:43;;;;;;;;;79.67;58.00;;;;;6.42;100.00;101209.75;6277931;20;3625473;-57
2022/11/13 07:27:12;;;;;;;;;77.67;58.00;;;;;6.44;100.00;101202.63;6303118;20;3625296;-55
2022/11/13 07:29:42;;;;;;;;;76.67;55.67;;;;;6.35;100.00;101203.69;6311568;20;3652982;-56
2022/11/13 07:32:11;;;;;;;;;75.67;57.00;;;;;6.68;100.00;101207.44;6271527;20;3629395;-56
2022/11/13 07:34:41;;;;;;;;;77.67;56.00;;;;;6.88;100.00;101208.81;6309391;20;3636707;-55
2022/11/13 07:37:10;;;;;;;;;82.33;60.00;;;;;6.66;100.00;101211.97;6309974;20;3631494;-57
2022/11/13 07:39:40;;;;;;;;;105.67;86.67;;;;;6.69;100.00;101201.22;6312224;20;3687905;-55
2022/11/13 07:42:09;;;;;;;;;74.00;55.00;;;;;6.76;100.00;101208.16;6279335;20;3620071;-55
2022/11/13 07:44:39;;;;;;;;;71.33;55.00;;;;;6.88;100.00;101209.69;6309680;20;3616953;-54
2022/11/13 07:47:23;;;;;;;;;75.33;57.00;;;;;6.61;100.00;101216.50;6311155;20;3617967;-58
2022/11/13 07:49:52;;;;;;;;;75.00;56.00;;;;;6.53;100.00;101208.66;6276685;20;3639061;-56
2022/11/13 07:52:31;;;;;;;;;73.00;54.33;;;;;7.01;100.00;101204.97;6274557;20;3651656;-57
2022/11/13 07:55:01;;;;;;;;;77.33;61.00;;;;;6.96;100.00;101207.72;6311411;20;3609601;-55
2022/11/13 07:57:30;;;;;;;;;78.33;57.67;;;;;6.99;100.00;101212.13;6307643;20;3635650;-55
2022/11/13 08:00:00;;;;;;;;;77.33;57.00;;;;;6.92;100.00;101215.84;6311588;20;3642973;-57
2022/11/13 08:02:29;;;;;;;;;74.33;57.33;;;;;7.20;100.00;101216.97;6278187;20;3635700;-55
2022/11/13 08:04:59;;;;;;;;;72.67;55.33;;;;;7.23;100.00;101211.56;6311210;20;3623916;-57
2022/11/13 08:07:28;;;;;;;;;67.67;54.67;;;;;6.93;100.00;101212.28;6310325;20;3621111;-56
2022/11/13 08:09:59;;;;;;;;;181.75;160.75;;;;;7.03;100.00;101211.16;6313446;20;3715873;-56
2022/11/13 08:12:28;;;;;;;;;74.00;54.00;;;;;7.10;100.00;101210.09;6276724;20;3631647;-55
2022/11/13 08:14:58;;;;;;;;;63.00;41.67;;;;;7.00;100.00;101211.19;6314469;20;3634654;-56
2022/11/13 08:17:27;;;;;;;;;73.33;56.67;;;;;7.13;100.00;101207.34;6307748;20;2871317;-55
2022/11/13 08:19:57;;;;;;;;;76.67;59.00;;;;;7.14;100.00;101211.78;6311557;20;3624239;-56
2022/11/13 08:22:26;;;;;;;;;71.33;56.00;;;;;7.15;100.00;101194.84;6316443;20;3624246;-56
2022/11/13 08:24:56;;;;;;;;;79.33;50.33;;;;;7.15;100.00;101213.53;6316377;20;3651342;-54
2022/11/13 08:27:26;;;;;;;;;76.33;57.33;;;;;7.24;100.00;101202.66;6282087;20;3638913;-50
2022/11/13 08:29:55;;;;;;;;;79.33;56.67;;;;;7.52;100.00;101196.63;6315835;20;3629475;-57
2022/11/13 08:32:25;;;;;;;;;75.67;58.67;;;;;7.55;100.00;101196.53;6319083;20;3620183;-56
2022/11/13 08:34:54;;;;;;;;;72.67;53.00;;;;;7.42;100.00;101197.75;6315002;20;3625299;-58
2022/11/13 08:37:22;;;;;;;;;80.33;58.00;;;;;7.49;100.00;101207.41;6285660;20;3645043;-53
2022/11/13 08:39:52;;;;;;;;;80.00;59.67;;;;;7.75;100.00;101208.56;6286782;20;3656574;-58
2022/11/13 08:42:21;;;;;;;;;78.00;54.50;;;;;7.48;100.00;101200.31;6284127;20;2716983;-55
2022/11/13 08:44:50;;;;;;;;;70.33;53.00;;;;;7.74;100.00;101199.66;6282714;20;3637084;-58
2022/11/13 08:47:20;;;;;;;;;74.25;55.25;;;;;7.63;100.00;101210.59;6318332;20;3645150;-56
2022/11/13 08:49:57;;;;;;;;;69.00;53.00;;;;;7.92;100.00;101214.31;6321390;20;3631560;-57
2022/11/13 08:52:25;;;;;;;;;74.33;54.33;;;;;7.95;100.00;101218.72;6286391;20;3629437;-56
2022/11/13 08:54:55;;;;;;;;;65.67;51.67;;;;;7.81;100.00;101216.41;6284001;20;3626336;-57
2022/11/13 08:57:25;;;;;;;;;72.50;50.50;;;;;7.81;100.00;101203.03;6314643;20;3597176;-58
2022/11/13 08:59:54;;;;;;;;;70.33;54.67;;;;;8.14;100.00;101212.84;6317912;20;3628527;-56
2022/11/13 09:02:24;;;;;;;;;76.67;55.67;;;;;7.75;100.00;101219.25;6320009;20;3635679;-57
2022/11/13 09:04:53;;;;;;;;;69.67;51.33;;;;;7.61;100.00;101209.78;6282983;20;3632592;-54
2022/11/13 09:07:22;;;;;;;;;74.33;52.00;;;;;7.68;100.00;101213.16;6316751;20;3651304;-59
2022/11/13 09:09:55;;;;;;;;;72.00;56.00;;;;;7.92;100.00;101211.66;6288892;20;3624393;-59
2022/11/13 09:12:24;;;;;;;;;70.00;51.00;;;;;7.85;100.00;101204.72;6284397;20;3651418;-59
2022/11/13 09:14:54;;;;;;;;;72.67;53.00;;;;;8.08;100.00;101201.41;6286081;20;3648222;-60
2022/11/13 09:17:23;;;;;;;;;75.67;55.67;;;;;8.16;100.00;101201.22;6281929;20;3645154;-59
2022/11/13 09:19:52;;;;;;;;;72.33;55.00;;;;;8.14;100.00;101206.63;6321081;20;3617048;-60
2022/11/13 09:22:20;;;;;;;;;76.00;57.00;;;;;7.86;100.00;101203.81;6287552;20;3637807;-60
2022/11/13 09:24:50;;;;;;;;;85.00;61.25;;;;;7.86;100.00;101206.47;6285528;20;3655550;-59
2022/11/13 09:27:20;;;;;;;;;77.50;57.25;;;;;8.07;100.00;101210.38;6315463;20;3642957;-60
2022/11/13 09:29:49;;;;;;;;;83.50;65.25;;;;;8.10;100.00;101211.16;6319111;20;4410919;-60
2022/11/13 09:32:23;;;;;;;;;71.00;52.67;;;;;8.22;100.00;101209.09;6319828;20;3644039;-60
2022/11/13 09:34:52;;;;;;;;;70.00;53.67;;;;;8.30;100.00;101202.59;6285973;20;3631677;-59
2022/11/13 09:37:22;;;;;;;;;71.00;54.00;;;;;8.10;100.00;101202.25;6316390;20;3641944;-59
2022/11/13 09:39:51;;;;;;;;;59.00;49.67;;;;;8.14;100.00;101196.81;6317003;20;2866025;-59
2022/11/13 09:42:26;;;;;;;;;74.67;52.67;;;;;8.28;100.00;101198.22;6315849;20;3627308;-59
2022/11/13 09:45:09;;;;;;;;;63.67;48.33;;;;;8.56;100.00;101182.28;6314079;20;3634675;-60
2022/11/13 09:47:47;;;;;;;;;63.67;48.67;;;;;8.24;100.00;101175.13;6280002;20;3637772;-59
2022/11/13 09:50:28;;;;;;;;;68.67;51.67;;;;;8.32;100.00;101178.47;6313726;20;3632601;-60
2022/11/13 09:52:58;;;;;;;;;80.50;55.00;;;;;7.99;100.00;101175.81;6313052;20;3646201;-60
2022/11/13 09:55:37;;;;;;;;;70.67;52.67;;;;;7.97;100.00;101176.78;6311115;20;3640891;-60
2022/11/13 09:58:31;;;;;;;;;74.00;54.67;;;;;8.50;100.00;101171.75;6280440;20;3624252;-60
2022/11/13 10:01:01;;;;;;;;;68.25;51.50;;;;;8.60;100.00;101175.91;6315004;20;4395091;-60
2022/11/13 10:03:51;;;;;;;;;84.33;66.33;;;;;8.82;100.00;101170.81;6314343;20;3654425;-60
2022/11/13 10:07:28;;;;;;;;;71.33;55.00;;;;;8.90;100.00;101176.81;6280463;20;3616918;-59
2022/11/13 10:10:47;;;;;;;;;64.00;50.00;;;;;8.71;100.00;101160.38;6283439;20;3634678;-59
2022/11/13 10:13:46;;;;;;;;;79.33;58.33;;;;;8.72;100.00;101166.66;6315492;20;3657533;-59
2022/11/13 10:16:53;;;;;;;;;65.25;52.00;;;;;8.96;100.00;101165.88;6321744;20;3630495;-59
2022/11/13 10:19:58;;;;;;;;;135.50;118.25;;;;;8.91;100.00;101156.25;6308553;20;3721164;-60
2022/11/13 10:22:50;;;;;;;;;64.00;50.00;;;;;8.89;100.00;101147.38;6315807;20;3635684;-60
2022/11/13 10:25:27;;;;;;;;;67.00;50.75;;;;;8.63;100.00;101140.13;6313824;20;3640926;-60
2022/11/13 10:28:00;;;;;;;;;75.00;61.33;;;;;9.14;100.00;101140.31;6311358;20;3606536;-60
2022/11/13 10:30:50;;;;;;;;;68.75;50.50;;;;;9.35;100.00;101145.91;6315606;20;3649341;-59
2022/11/13 10:33:21;;;;;;;;;100.50;92.00;;;;;9.26;100.00;101136.34;6310690;20;1941228;-61
2022/11/13 10:36:26;;;;;;;;;72.00;55.67;;;;;9.39;100.00;101136.81;6285357;20;3628476;-58
2022/11/13 10:39:07;;;;;;;;;66.33;51.33;;;;;8.84;100.00;101134.13;6281257;20;3639852;-58
2022/11/13 10:41:53;;;;;;;;;69.33;51.33;;;;;9.28;100.00;101134.50;6281780;20;3644072;-59
2022/11/13 10:44:32;;;;;;;;;63.33;49.33;;;;;9.18;100.00;101122.34;6276203;20;3617969;-60
2022/11/13 10:47:17;;;;;;;;;60.67;50.67;;;;;9.35;100.00;101119.97;6313188;20;3609599;-60
2022/11/13 10:50:23;;;;;;;;;68.67;52.00;;;;;9.17;100.00;101116.09;6318358;20;3633689;-59
2022/11/13 10:52:55;;;;;;;;;67.67;50.00;;;;;9.07;100.00;101119.13;6276907;20;3637759;-60
2022/11/13 10:55:35;;;;;;;;;70.67;52.33;;;;;9.20;100.00;101115.13;6279835;20;3631530;-60
2022/11/13 10:58:17;;;;;;;;;77.00;56.67;;;;;9.75;100.00;101110.56;6313842;20;3635078;-59
2022/11/13 11:00:48;;;;;;;;;74.00;53.67;;;;;9.65;100.00;101103.75;6283262;20;3636847;-60
2022/11/13 11:03:26;;;;;;;;;69.00;51.00;;;;;9.63;100.00;101101.13;6314869;20;3639870;-60
2022/11/13 11:06:03;;;;;;;;;67.00;49.00;;;;;9.58;100.00;101099.53;6273078;20;3655562;-59
2022/11/13 11:08:35;;;;;;;;;73.67;55.67;;;;;9.73;100.00;101104.38;6313434;20;3630460;-55
2022/11/13 11:14:27;;;;;;;;;69.67;51.00;;;;;9.88;100.00;101092.22;6313860;20;3633614;-55
2022/11/13 11:16:57;;;;;;;;;69.67;54.67;;;;;9.84;100.00;101102.16;6278742;20;3623223;-55
2022/11/13 11:19:31;;;;;;;;;67.00;53.00;;;;;9.75;100.00;101099.84;6278761;20;2866012;-57
2022/11/13 11:22:23;;;;;;;;;64.67;51.33;;;;;9.68;100.00;101098.28;6280163;20;3616458;-57
2022/11/13 11:25:24;;;;;;;;;103.00;88.00;;;;;9.53;100.00;101086.31;6307038;20;1931561;-60